createdAt,value
2023-01-04T00:00:04.067Z,48.0
2023-01-04T00:01:03.992Z,47.8
2023-01-04T00:02:03.933Z,47.8
2023-01-04T00:03:04.142Z,47.8
2023-01-04T00:04:03.949Z,47.8
2023-01-04T00:05:03.946Z,47.8
2023-01-04T00:06:03.926Z,47.9
2023-01-04T00:07:03.891Z,47.9
2023-01-04T00:08:03.884Z,47.9
2023-01-04T00:09:03.937Z,47.9
2023-01-04T00:10:03.904Z,47.9
2023-01-04T00:11:03.950Z,47.9
2023-01-04T00:12:03.905Z,48.0
2023-01-04T00:13:03.957Z,48.0
2023-01-04T00:14:03.875Z,48.0
2023-01-04T00:15:03.922Z,48.0
2023-01-04T00:16:07.956Z,48.0
2023-01-04T00:17:03.895Z,48.1
2023-01-04T00:18:03.934Z,48.1
2023-01-04T00:19:03.919Z,48.1
2023-01-04T00:20:03.898Z,48.1
2023-01-04T00:21:03.879Z,48.2
2023-01-04T00:22:03.883Z,48.2
2023-01-04T00:23:04.863Z,48.2
2023-01-04T00:24:03.886Z,48.3
2023-01-04T00:25:04.242Z,48.3
2023-01-04T00:26:03.887Z,48.3
2023-01-04T00:27:03.982Z,48.4
2023-01-04T00:28:03.907Z,48.4
2023-01-04T00:29:03.958Z,48.5
2023-01-04T00:30:03.938Z,48.4
2023-01-04T00:31:04.076Z,48.5
2023-01-04T00:32:03.941Z,48.5
2023-01-04T00:33:04.752Z,48.6
2023-01-04T00:34:03.883Z,48.6
2023-01-04T00:35:04.915Z,48.6
2023-01-04T00:36:04.193Z,48.7
2023-01-04T00:37:04.000Z,48.7
2023-01-04T00:38:03.947Z,48.7
2023-01-04T00:39:05.215Z,48.8
2023-01-04T00:40:03.976Z,48.8
2023-01-04T00:41:04.336Z,48.8
2023-01-04T00:42:03.991Z,48.9
2023-01-04T00:43:04.816Z,48.9
2023-01-04T00:44:04.221Z,48.9
2023-01-04T00:45:03.991Z,49.0
2023-01-04T00:46:04.301Z,49.0
2023-01-04T00:47:04.024Z,49.1
2023-01-04T00:48:04.294Z,49.1
2023-01-04T00:49:05.219Z,49.2
2023-01-04T00:50:04.323Z,49.2
2023-01-04T00:52:26.389Z,49.2
2023-01-04T00:52:30.499Z,51.6
2023-01-04T00:53:04.267Z,49.8
2023-01-04T00:54:04.033Z,49.5
2023-01-04T00:55:04.994Z,49.5
2023-01-04T00:56:04.244Z,49.5
2023-01-04T00:57:04.025Z,49.4
2023-01-04T00:58:04.955Z,49.5
2023-01-04T00:59:04.968Z,49.5
2023-01-04T01:00:04.212Z,49.5
2023-01-04T01:01:05.083Z,49.4
2023-01-04T01:02:05.295Z,49.5
2023-01-04T01:03:04.412Z,49.6
2023-01-04T01:04:05.063Z,49.6
2023-01-04T01:05:04.032Z,49.6
2023-01-04T01:06:04.021Z,49.6
2023-01-04T01:07:04.113Z,49.6
2023-01-04T01:08:03.999Z,49.6
2023-01-04T01:09:04.311Z,49.6
2023-01-04T01:10:04.015Z,49.6
2023-01-04T01:11:04.412Z,49.7
2023-01-04T01:12:04.000Z,49.7
2023-01-04T01:13:04.036Z,49.7
2023-01-04T01:14:03.973Z,49.8
2023-01-04T01:15:04.026Z,49.8
2023-01-04T01:16:05.026Z,49.8
2023-01-04T01:17:04.898Z,49.7
2023-01-04T01:18:04.243Z,49.8
2023-01-04T01:19:04.061Z,49.8
2023-01-04T01:20:04.821Z,49.9
2023-01-04T01:21:05.011Z,49.8
2023-01-04T01:22:04.068Z,49.8
2023-01-04T01:23:04.034Z,49.9
2023-01-04T01:24:03.998Z,50.0
2023-01-04T01:25:04.031Z,50.0
2023-01-04T01:26:04.938Z,50.0
2023-01-04T01:27:05.049Z,50.1
2023-01-04T01:28:04.229Z,50.1
2023-01-04T01:29:04.073Z,50.1
2023-01-04T01:30:04.222Z,50.1
2023-01-04T01:31:08.487Z,50.1
2023-01-04T01:32:04.238Z,50.2
2023-01-04T01:33:04.035Z,50.2
2023-01-04T01:34:03.947Z,50.2
2023-01-04T01:35:03.977Z,50.2
2023-01-04T01:36:04.937Z,50.2
2023-01-04T01:37:04.037Z,50.2
2023-01-04T01:38:04.294Z,50.3
2023-01-04T01:39:04.119Z,50.3
2023-01-04T01:40:04.051Z,50.3
2023-01-04T01:41:04.062Z,50.3
2023-01-04T01:42:04.897Z,50.3
2023-01-04T01:43:04.038Z,50.4
2023-01-04T01:44:04.022Z,50.4
2023-01-04T01:45:04.975Z,50.4
2023-01-04T01:46:04.070Z,50.4
2023-01-04T01:47:04.030Z,50.5
2023-01-04T01:48:03.960Z,50.5
2023-01-04T01:49:04.362Z,50.5
2023-01-04T01:50:04.000Z,50.5
2023-01-04T01:52:56.698Z,52.0
2023-01-04T01:53:05.257Z,51.7
2023-01-04T01:54:04.442Z,50.8
2023-01-04T01:55:04.404Z,50.8
2023-01-04T01:56:04.424Z,50.7
2023-01-04T01:57:04.978Z,50.7
2023-01-04T01:58:04.511Z,50.7
2023-01-04T01:59:04.465Z,50.7
2023-01-04T02:00:04.876Z,50.7
2023-01-04T02:01:04.817Z,50.8
2023-01-04T02:02:04.813Z,50.8
2023-01-04T02:03:05.245Z,50.8
2023-01-04T02:04:05.564Z,50.8
2023-01-04T02:05:11.524Z,50.8
2023-01-04T02:06:11.051Z,51.0
2023-01-04T02:07:10.982Z,50.9
2023-01-04T02:08:04.143Z,50.9
2023-01-04T02:09:03.911Z,50.9
2023-01-04T02:10:03.883Z,50.8
2023-01-04T02:11:04.116Z,50.9
2023-01-04T02:12:03.847Z,50.9
2023-01-04T02:13:03.849Z,50.9
2023-01-04T02:14:05.087Z,50.9
2023-01-04T02:15:04.064Z,50.9
2023-01-04T02:16:04.298Z,50.9
2023-01-04T02:17:04.135Z,50.9
2023-01-04T02:18:03.918Z,50.9
2023-01-04T02:19:03.862Z,50.9
2023-01-04T02:20:03.891Z,50.9
2023-01-04T02:21:03.867Z,50.9
2023-01-04T02:22:04.223Z,50.9
2023-01-04T02:23:06.494Z,50.9
2023-01-04T02:24:04.186Z,50.9
2023-01-04T02:25:03.902Z,50.9
2023-01-04T02:26:03.897Z,50.9
2023-01-04T02:27:04.173Z,50.9
2023-01-04T02:28:03.858Z,51.0
2023-01-04T02:29:04.706Z,51.0
2023-01-04T02:30:03.939Z,51.0
2023-01-04T02:31:03.915Z,51.0
2023-01-04T02:32:03.892Z,50.9
2023-01-04T02:33:04.982Z,51.0
2023-01-04T02:34:04.861Z,51.0
2023-01-04T02:35:03.821Z,51.0
2023-01-04T02:36:04.838Z,51.0
2023-01-04T02:37:03.879Z,51.0
2023-01-04T02:38:03.942Z,51.0
2023-01-04T02:39:04.810Z,51.0
2023-01-04T02:40:03.855Z,51.0
2023-01-04T02:41:04.219Z,51.0
2023-01-04T02:42:03.931Z,51.0
2023-01-04T02:43:10.775Z,51.1
2023-01-04T02:44:03.864Z,51.1
2023-01-04T02:45:03.913Z,51.1
2023-01-04T02:46:04.776Z,51.1
2023-01-04T02:47:04.239Z,51.0
2023-01-04T02:48:03.905Z,51.0
2023-01-04T02:49:03.956Z,51.0
2023-01-04T02:50:05.453Z,51.0
2023-01-04T02:51:05.177Z,51.0
2023-01-04T02:52:03.847Z,51.0
2023-01-04T02:53:03.919Z,51.0
2023-01-04T02:54:04.363Z,51.0
2023-01-04T02:55:04.129Z,51.0
2023-01-04T02:56:04.185Z,51.0
2023-01-04T02:57:06.065Z,51.0
2023-01-04T02:59:35.119Z,52.4
2023-01-04T03:00:06.514Z,51.4
2023-01-04T03:01:04.865Z,51.2
2023-01-04T03:02:04.650Z,51.1
2023-01-04T03:03:04.597Z,51.1
2023-01-04T03:04:04.667Z,51.1
2023-01-04T03:05:04.497Z,51.0
2023-01-04T03:06:04.514Z,51.0
2023-01-04T03:07:04.749Z,51.0
2023-01-04T03:08:04.557Z,51.0
2023-01-04T03:09:04.458Z,51.0
2023-01-04T03:10:04.907Z,51.0
2023-01-04T03:11:04.608Z,51.0
2023-01-04T03:12:04.839Z,51.0
2023-01-04T03:13:04.525Z,51.0
2023-01-04T03:14:30.798Z,51.0
2023-01-04T03:15:04.495Z,51.3
2023-01-04T03:16:05.400Z,51.1
2023-01-04T03:17:04.722Z,51.0
2023-01-04T03:18:04.511Z,51.0
2023-01-04T03:19:04.500Z,51.0
2023-01-04T03:20:06.339Z,51.0
2023-01-04T03:21:05.325Z,51.0
2023-01-04T03:22:04.548Z,51.0
2023-01-04T03:23:04.519Z,51.1
2023-01-04T03:24:04.549Z,51.0
2023-01-04T03:25:04.478Z,51.0
2023-01-04T03:26:04.510Z,51.0
2023-01-04T03:27:04.507Z,51.0
2023-01-04T03:28:05.647Z,51.0
2023-01-04T03:29:04.498Z,51.0
2023-01-04T03:30:04.877Z,51.0
2023-01-04T03:31:04.561Z,51.0
2023-01-04T03:32:04.595Z,51.0
2023-01-04T03:33:05.064Z,51.0
2023-01-04T03:34:04.798Z,51.0
2023-01-04T03:35:04.478Z,51.0
2023-01-04T03:36:04.734Z,51.0
2023-01-04T03:37:04.736Z,51.0
2023-01-04T03:38:04.514Z,51.0
2023-01-04T03:39:04.823Z,51.0
2023-01-04T03:40:04.548Z,51.0
2023-01-04T03:41:04.498Z,51.0
2023-01-04T03:42:04.564Z,51.0
2023-01-04T03:43:04.485Z,51.0
2023-01-04T03:44:04.804Z,51.0
2023-01-04T03:45:09.750Z,51.0
2023-01-04T03:46:04.504Z,51.0
2023-01-04T03:47:04.584Z,51.0
2023-01-04T03:48:04.514Z,51.0
2023-01-04T03:49:04.516Z,51.0
2023-01-04T03:50:04.531Z,51.0
2023-01-04T03:52:28.614Z,51.0
2023-01-04T03:52:34.106Z,53.3
2023-01-04T03:53:04.550Z,51.5
2023-01-04T03:54:04.517Z,51.2
2023-01-04T03:55:04.820Z,51.1
2023-01-04T03:56:04.827Z,51.1
2023-01-04T03:57:04.580Z,51.1
2023-01-04T03:58:04.841Z,51.1
2023-01-04T03:59:05.107Z,51.1
2023-01-04T04:00:04.549Z,51.1
2023-01-04T04:01:04.871Z,51.0
2023-01-04T04:02:05.358Z,51.1
2023-01-04T04:03:04.497Z,51.0
2023-01-04T04:04:04.574Z,51.0
2023-01-04T04:05:05.329Z,51.0
2023-01-04T04:06:05.324Z,51.0
2023-01-04T04:07:05.231Z,51.0
2023-01-04T04:08:04.600Z,51.0
2023-01-04T04:09:05.435Z,51.0
2023-01-04T04:10:04.801Z,51.0
2023-01-04T04:11:05.516Z,51.0
2023-01-04T04:12:04.505Z,51.0
2023-01-04T04:13:05.460Z,51.0
2023-01-04T04:14:05.783Z,51.0
2023-01-04T04:15:04.684Z,51.0
2023-01-04T04:16:05.599Z,51.0
2023-01-04T04:17:04.868Z,51.0
2023-01-04T04:18:04.587Z,51.0
2023-01-04T04:19:08.580Z,51.0
2023-01-04T04:20:06.201Z,51.0
2023-01-04T04:21:04.484Z,51.0
2023-01-04T04:22:05.439Z,51.0
2023-01-04T04:23:04.712Z,51.0
2023-01-04T04:24:04.544Z,51.0
2023-01-04T04:25:06.370Z,51.0
2023-01-04T04:26:04.535Z,51.0
2023-01-04T04:27:04.529Z,51.0
2023-01-04T04:28:06.575Z,51.0
2023-01-04T04:29:04.557Z,51.0
2023-01-04T04:30:04.420Z,51.0
2023-01-04T04:31:04.379Z,51.0
2023-01-04T04:32:04.468Z,51.0
2023-01-04T04:33:04.387Z,51.0
2023-01-04T04:34:04.402Z,51.0
2023-01-04T04:35:04.507Z,51.0
2023-01-04T04:36:04.413Z,51.0
2023-01-04T04:37:04.380Z,50.9
2023-01-04T04:38:04.424Z,51.0
2023-01-04T04:39:04.388Z,50.9
2023-01-04T04:40:04.408Z,51.0
2023-01-04T04:41:04.401Z,51.0
2023-01-04T04:42:04.399Z,51.0
2023-01-04T04:43:04.393Z,51.0
2023-01-04T04:44:04.464Z,51.0
2023-01-04T04:45:04.393Z,51.0
2023-01-04T04:46:04.510Z,51.0
2023-01-04T04:47:04.408Z,51.0
2023-01-04T04:48:04.445Z,50.9
2023-01-04T04:49:04.423Z,51.0
2023-01-04T04:50:04.458Z,51.0
2023-01-04T04:51:05.353Z,51.0
2023-01-04T04:52:04.421Z,51.0
2023-01-04T04:53:04.419Z,51.0
2023-01-04T04:54:04.430Z,51.0
2023-01-04T04:55:04.394Z,51.1
2023-01-04T04:56:04.402Z,51.1
2023-01-04T04:57:04.380Z,51.2
2023-01-04T04:59:54.560Z,52.1
2023-01-04T05:00:04.550Z,51.5
2023-01-04T05:01:11.137Z,50.8
2023-01-04T05:02:04.035Z,50.4
2023-01-04T05:03:03.832Z,50.3
2023-01-04T05:04:03.783Z,50.2
2023-01-04T05:05:03.750Z,50.1
2023-01-04T05:06:03.789Z,50.0
2023-01-04T05:07:07.611Z,50.0
2023-01-04T05:08:03.802Z,50.0
2023-01-04T05:09:10.479Z,50.1
2023-01-04T05:10:04.176Z,49.8
2023-01-04T05:11:04.215Z,49.7
2023-01-04T05:12:10.960Z,49.8
2023-01-04T05:13:03.638Z,49.5
2023-01-04T05:14:10.429Z,49.6
2023-01-04T05:15:04.160Z,49.4
2023-01-04T05:16:04.166Z,49.3
2023-01-04T05:17:04.209Z,49.3
2023-01-04T05:18:04.139Z,49.2
2023-01-04T05:19:04.168Z,49.1
2023-01-04T05:20:04.146Z,49.0
2023-01-04T05:21:04.154Z,48.9
2023-01-04T05:22:04.120Z,48.8
2023-01-04T05:23:04.166Z,48.7
2023-01-04T05:24:04.133Z,48.5
2023-01-04T05:25:04.159Z,48.4
2023-01-04T05:26:04.134Z,48.3
2023-01-04T05:27:04.169Z,48.1
2023-01-04T05:28:04.137Z,48.0
2023-01-04T05:29:04.151Z,47.9
2023-01-04T05:30:04.162Z,47.8
2023-01-04T05:31:04.145Z,47.7
2023-01-04T05:32:04.239Z,47.6
2023-01-04T05:33:04.175Z,47.5
2023-01-04T05:34:04.131Z,47.4
2023-01-04T05:35:04.195Z,47.4
2023-01-04T05:36:04.153Z,47.3
2023-01-04T05:37:04.159Z,47.3
2023-01-04T05:38:04.131Z,47.2
2023-01-04T05:39:04.172Z,47.1
2023-01-04T05:40:04.124Z,47.1
2023-01-04T05:41:04.164Z,47.0
2023-01-04T05:42:04.136Z,47.0
2023-01-04T05:43:04.165Z,47.0
2023-01-04T05:44:04.118Z,47.0
2023-01-04T05:45:04.168Z,47.0
2023-01-04T05:46:04.195Z,46.9
2023-01-04T05:47:06.234Z,46.9
2023-01-04T05:48:04.140Z,46.9
2023-01-04T05:49:04.171Z,46.9
2023-01-04T05:50:04.129Z,46.8
2023-01-04T05:51:04.185Z,46.8
2023-01-04T05:52:04.140Z,46.7
2023-01-04T05:53:04.137Z,46.7
2023-01-04T05:54:04.160Z,46.7
2023-01-04T05:55:04.174Z,46.6
2023-01-04T05:56:04.127Z,46.5
2023-01-04T05:57:04.429Z,46.5
2023-01-04T05:58:04.140Z,46.5
2023-01-04T05:59:04.146Z,46.4
2023-01-04T06:00:04.130Z,46.4
2023-01-04T06:01:04.168Z,46.4
2023-01-04T06:03:40.204Z,46.4
2023-01-04T06:03:44.471Z,48.4
2023-01-04T06:04:04.193Z,47.0
2023-01-04T06:05:04.201Z,46.5
2023-01-04T06:06:04.169Z,46.5
2023-01-04T06:07:04.174Z,46.4
2023-01-04T06:08:04.168Z,46.3
2023-01-04T06:09:04.186Z,46.3
2023-01-04T06:10:04.147Z,46.2
2023-01-04T06:11:04.179Z,46.2
2023-01-04T06:12:04.140Z,46.1
2023-01-04T06:13:04.163Z,46.1
2023-01-04T06:14:04.157Z,46.0
2023-01-04T06:15:04.158Z,46.0
2023-01-04T06:16:04.153Z,46.0
2023-01-04T06:17:04.236Z,45.9
2023-01-04T06:18:08.662Z,45.9
2023-01-04T06:19:04.174Z,45.9
2023-01-04T06:20:04.151Z,45.9
2023-01-04T06:21:04.184Z,45.8
2023-01-04T06:22:04.154Z,45.8
2023-01-04T06:23:04.177Z,45.8
2023-01-04T06:24:04.142Z,45.8
2023-01-04T06:25:04.177Z,45.8
2023-01-04T06:26:04.180Z,45.8
2023-01-04T06:27:04.180Z,45.8
2023-01-04T06:28:04.140Z,45.8
2023-01-04T06:29:04.188Z,45.8
2023-01-04T06:30:04.147Z,45.8
2023-01-04T06:31:04.230Z,45.7
2023-01-04T06:32:04.171Z,45.7
2023-01-04T06:33:04.171Z,45.7
2023-01-04T06:34:04.170Z,45.7
2023-01-04T06:35:04.180Z,45.7
2023-01-04T06:36:04.150Z,45.7
2023-01-04T06:37:04.419Z,45.7
2023-01-04T06:38:04.160Z,45.7
2023-01-04T06:39:04.217Z,45.7
2023-01-04T06:40:04.149Z,45.7
2023-01-04T06:41:04.182Z,45.6
2023-01-04T06:42:06.938Z,45.6
2023-01-04T06:43:04.170Z,45.6
2023-01-04T06:44:04.194Z,45.6
2023-01-04T06:45:04.194Z,45.6
2023-01-04T06:46:04.254Z,45.6
2023-01-04T06:47:04.259Z,45.5
2023-01-04T06:48:08.892Z,45.5
2023-01-04T06:49:04.278Z,45.5
2023-01-04T06:50:04.193Z,45.5
2023-01-04T06:51:04.189Z,45.4
2023-01-04T06:52:04.192Z,45.4
2023-01-04T06:53:04.166Z,45.4
2023-01-04T06:54:04.188Z,45.4
2023-01-04T06:55:04.187Z,45.4
2023-01-04T06:56:04.189Z,45.4
2023-01-04T06:57:04.186Z,45.4
2023-01-04T06:58:04.185Z,45.4
2023-01-04T06:59:04.148Z,45.5
2023-01-04T07:00:04.181Z,45.5
2023-01-04T07:01:04.210Z,45.5
2023-01-04T07:02:04.271Z,45.5
2023-01-04T07:03:14.464Z,45.6
2023-01-04T07:04:04.252Z,45.7
2023-01-04T07:05:05.289Z,45.6
2023-01-04T07:06:04.314Z,45.6
2023-01-04T07:07:04.289Z,45.7
2023-01-04T07:08:07.880Z,45.6
2023-01-04T07:09:04.261Z,45.7
2023-01-04T07:10:09.121Z,45.7
2023-01-04T07:11:04.286Z,45.7
2023-01-04T07:12:04.312Z,45.7
2023-01-04T07:13:04.271Z,45.7
2023-01-04T07:14:04.204Z,45.7
2023-01-04T07:15:04.158Z,45.6
2023-01-04T07:17:06.632Z,46.1
2023-01-04T07:17:10.607Z,47.4
2023-01-04T07:18:04.220Z,45.9
2023-01-04T07:19:04.164Z,45.8
2023-01-04T07:20:04.221Z,45.6
2023-01-04T07:21:04.210Z,45.6
2023-01-04T07:22:04.215Z,45.6
2023-01-04T07:23:04.194Z,45.6
2023-01-04T07:24:04.234Z,45.5
2023-01-04T07:25:04.226Z,45.6
2023-01-04T07:26:04.182Z,45.6
2023-01-04T07:27:04.219Z,45.5
2023-01-04T07:28:04.191Z,45.6
2023-01-04T07:29:04.368Z,45.5
2023-01-04T07:30:04.206Z,45.5
2023-01-04T07:31:04.218Z,45.5
2023-01-04T07:32:07.628Z,45.5
2023-01-04T07:33:04.176Z,45.5
2023-01-04T07:34:04.183Z,45.5
2023-01-04T07:35:04.193Z,45.5
2023-01-04T07:36:04.192Z,45.5
2023-01-04T07:37:04.182Z,45.5
2023-01-04T07:38:04.192Z,45.5
2023-01-04T07:39:04.166Z,45.4
2023-01-04T07:40:04.199Z,45.4
2023-01-04T07:41:10.890Z,45.5
2023-01-04T07:42:11.441Z,45.5
2023-01-04T07:43:04.062Z,45.4
2023-01-04T07:44:04.878Z,45.4
2023-01-04T07:45:04.065Z,45.3
2023-01-04T07:46:04.068Z,45.3
2023-01-04T07:47:04.114Z,45.4
2023-01-04T07:48:04.097Z,45.3
2023-01-04T07:49:04.075Z,45.3
2023-01-04T07:50:05.028Z,45.3
2023-01-04T07:51:04.086Z,45.2
2023-01-04T07:52:04.045Z,45.2
2023-01-04T07:53:04.083Z,45.2
2023-01-04T07:54:04.059Z,45.3
2023-01-04T07:55:04.373Z,45.3
2023-01-04T07:56:04.061Z,45.3
2023-01-04T07:57:04.076Z,45.3
2023-01-04T07:58:04.095Z,45.3
2023-01-04T07:59:04.135Z,45.3
2023-01-04T08:00:04.059Z,45.2
2023-01-04T08:01:04.099Z,45.3
2023-01-04T08:02:04.228Z,45.3
2023-01-04T08:03:04.269Z,45.2
2023-01-04T08:04:04.200Z,45.3
2023-01-04T08:05:04.177Z,45.2
2023-01-04T08:06:04.090Z,45.3
2023-01-04T08:07:04.859Z,45.3
2023-01-04T08:08:04.145Z,45.3
2023-01-04T08:09:04.154Z,45.3
2023-01-04T08:10:04.091Z,45.2
2023-01-04T08:11:04.073Z,45.3
2023-01-04T08:12:04.039Z,45.3
2023-01-04T08:13:04.093Z,45.3
2023-01-04T08:14:04.051Z,45.3
2023-01-04T08:15:04.115Z,45.2
2023-01-04T08:16:04.104Z,45.2
2023-01-04T08:17:04.078Z,45.2
2023-01-04T08:18:04.077Z,45.2
2023-01-04T08:19:04.139Z,45.2
2023-01-04T08:20:04.098Z,45.2
2023-01-04T08:21:04.131Z,45.2
2023-01-04T08:22:04.056Z,45.2
2023-01-04T08:23:04.094Z,45.2
2023-01-04T08:24:04.068Z,45.2
2023-01-04T08:25:04.098Z,45.2
2023-01-04T08:26:04.062Z,45.2
2023-01-04T08:27:04.079Z,45.2
2023-01-04T08:28:04.061Z,45.2
2023-01-04T08:29:04.078Z,45.2
2023-01-04T08:30:04.053Z,45.2
2023-01-04T08:31:04.145Z,45.2
2023-01-04T08:32:04.054Z,45.2
2023-01-04T08:33:04.090Z,45.2
2023-01-04T08:34:04.057Z,45.2
2023-01-04T08:35:04.075Z,45.2
2023-01-04T08:36:04.048Z,45.3
2023-01-04T08:37:04.094Z,45.6
2023-01-04T08:38:46.726Z,45.9
2023-01-04T08:39:10.846Z,47.8
2023-01-04T08:40:04.540Z,46.9
2023-01-04T08:41:30.815Z,46.2
2023-01-04T08:42:16.092Z,46.4
2023-01-04T08:43:11.332Z,46.7
2023-01-04T08:44:04.018Z,47.3
2023-01-04T08:45:04.049Z,47.2
2023-01-04T08:46:04.036Z,46.7
2023-01-04T08:47:04.169Z,46.7
2023-01-04T08:48:04.018Z,46.8
2023-01-04T08:49:04.062Z,46.8
2023-01-04T08:50:10.457Z,46.8
2023-01-04T08:51:04.971Z,46.9
2023-01-04T08:52:04.020Z,46.9
2023-01-04T08:53:04.090Z,46.9
2023-01-04T08:54:04.046Z,47.0
2023-01-04T08:55:10.053Z,47.2
2023-01-04T08:56:04.033Z,47.2
2023-01-04T08:57:04.080Z,47.2
2023-01-04T08:58:04.018Z,47.3
2023-01-04T08:59:04.039Z,47.3
2023-01-04T09:00:04.087Z,47.6
2023-01-04T09:01:04.118Z,47.4
2023-01-04T09:02:06.099Z,47.4
2023-01-04T09:03:04.229Z,47.4
2023-01-04T09:04:04.062Z,47.4
2023-01-04T09:05:04.227Z,47.4
2023-01-04T09:06:04.049Z,47.4
2023-01-04T09:07:04.100Z,47.4
2023-01-04T09:08:04.043Z,47.4
2023-01-04T09:09:04.099Z,47.3
2023-01-04T09:10:04.107Z,47.3
2023-01-04T09:11:04.067Z,47.2
2023-01-04T09:12:04.054Z,47.2
2023-01-04T09:13:04.077Z,47.2
2023-01-04T09:14:08.015Z,47.1
2023-01-04T09:15:04.122Z,47.2
2023-01-04T09:16:04.216Z,47.1
2023-01-04T09:17:05.029Z,47.0
2023-01-04T09:18:31.065Z,47.0
2023-01-04T09:19:04.033Z,47.2
2023-01-04T09:20:04.107Z,47.0
2023-01-04T09:21:04.033Z,46.9
2023-01-04T09:22:04.086Z,46.9
2023-01-04T09:23:04.055Z,46.8
2023-01-04T09:24:04.067Z,46.8
2023-01-04T09:25:04.113Z,46.8
2023-01-04T09:26:09.090Z,46.8
2023-01-04T09:27:04.023Z,46.8
2023-01-04T09:28:04.046Z,47.3
2023-01-04T09:29:04.034Z,47.3
2023-01-04T09:30:04.076Z,47.1
2023-01-04T09:31:04.088Z,47.1
2023-01-04T09:32:04.115Z,47.1
2023-01-04T09:33:04.040Z,47.0
2023-01-04T09:35:54.151Z,48.2
2023-01-04T09:36:04.146Z,47.7
2023-01-04T09:37:03.914Z,47.1
2023-01-04T09:38:03.894Z,47.1
2023-01-04T09:39:03.876Z,47.0
2023-01-04T09:40:03.969Z,46.9
2023-01-04T09:41:03.872Z,46.8
2023-01-04T09:42:04.030Z,46.7
2023-01-04T09:43:20.158Z,46.8
2023-01-04T09:44:04.460Z,46.9
2023-01-04T09:45:23.224Z,46.8
2023-01-04T09:46:04.969Z,46.9
2023-01-04T09:47:03.908Z,46.7
2023-01-04T09:48:03.903Z,46.6
2023-01-04T09:49:03.917Z,46.6
2023-01-04T09:50:03.900Z,46.6
2023-01-04T09:51:03.873Z,46.5
2023-01-04T09:52:03.909Z,46.4
2023-01-04T09:53:03.881Z,46.4
2023-01-04T09:54:03.903Z,46.3
2023-01-04T09:55:36.955Z,46.3
2023-01-04T09:56:03.896Z,46.8
2023-01-04T09:57:03.883Z,46.4
2023-01-04T09:58:03.898Z,46.4
2023-01-04T09:59:03.880Z,46.4
2023-01-04T10:00:03.901Z,46.4
2023-01-04T10:01:03.936Z,46.3
2023-01-04T10:02:04.242Z,46.3
2023-01-04T10:03:03.969Z,46.3
2023-01-04T10:04:03.919Z,46.3
2023-01-04T10:05:03.895Z,46.4
2023-01-04T10:06:03.906Z,46.4
2023-01-04T10:07:05.354Z,46.4
2023-01-04T10:08:03.918Z,46.4
2023-01-04T10:09:03.894Z,46.5
2023-01-04T10:10:03.922Z,46.5
2023-01-04T10:11:03.874Z,46.5
2023-01-04T10:12:03.917Z,46.5
2023-01-04T10:13:03.897Z,46.5
2023-01-04T10:14:03.967Z,46.5
2023-01-04T10:15:03.895Z,46.5
2023-01-04T10:16:03.977Z,46.5
2023-01-04T10:17:13.707Z,46.6
2023-01-04T10:19:59.864Z,46.8
2023-01-04T10:21:26.736Z,48.6
2023-01-04T10:22:03.936Z,47.4
2023-01-04T10:23:03.928Z,46.8
2023-01-04T10:24:03.888Z,46.7
2023-01-04T10:25:03.911Z,46.7
2023-01-04T10:26:03.913Z,46.7
2023-01-04T10:27:03.916Z,46.6
2023-01-04T10:28:03.896Z,46.6
2023-01-04T10:29:03.911Z,46.5
2023-01-04T10:30:03.916Z,46.4
2023-01-04T10:31:39.492Z,46.3
2023-01-04T10:32:03.980Z,46.7
2023-01-04T10:33:03.918Z,46.4
2023-01-04T10:34:03.919Z,46.4
2023-01-04T10:35:03.923Z,46.3
2023-01-04T10:36:03.946Z,46.3
2023-01-04T10:37:03.945Z,46.3
2023-01-04T10:38:03.898Z,46.2
2023-01-04T10:39:03.912Z,46.3
2023-01-04T10:40:03.906Z,46.3
2023-01-04T10:41:03.936Z,46.3
2023-01-04T10:42:03.885Z,46.2
2023-01-04T10:43:03.930Z,46.2
2023-01-04T10:44:11.967Z,46.2
2023-01-04T10:45:08.689Z,46.2
2023-01-04T10:46:03.992Z,46.2
2023-01-04T10:47:04.028Z,46.1
2023-01-04T10:48:03.895Z,46.1
2023-01-04T10:49:03.927Z,46.1
2023-01-04T10:50:03.978Z,46.2
2023-01-04T10:51:09.677Z,46.2
2023-01-04T10:52:03.916Z,46.2
2023-01-04T10:54:35.516Z,47.6
2023-01-04T10:55:05.187Z,46.6
2023-01-04T10:56:26.502Z,46.4
2023-01-04T10:57:06.881Z,46.5
2023-01-04T10:58:04.582Z,46.4
2023-01-04T10:59:04.533Z,46.3
2023-01-04T11:00:04.562Z,46.3
2023-01-04T11:01:04.603Z,46.3
2023-01-04T11:02:04.759Z,46.3
2023-01-04T11:03:08.920Z,46.3
2023-01-04T11:04:04.550Z,46.3
2023-01-04T11:05:04.560Z,46.4
2023-01-04T11:06:04.623Z,46.3
2023-01-04T11:07:04.532Z,46.3
2023-01-04T11:08:04.585Z,46.3
2023-01-04T11:09:04.558Z,46.3
2023-01-04T11:10:04.586Z,46.3
2023-01-04T11:11:04.575Z,46.3
2023-01-04T11:12:04.570Z,46.4
2023-01-04T11:13:05.463Z,46.5
2023-01-04T11:14:04.557Z,46.5
2023-01-04T11:15:04.537Z,46.6
2023-01-04T11:16:04.577Z,46.6
2023-01-04T11:17:04.523Z,46.5
2023-01-04T11:18:11.274Z,46.6
2023-01-04T11:19:03.969Z,46.5
2023-01-04T11:20:04.739Z,46.5
2023-01-04T11:21:03.964Z,46.5
2023-01-04T11:22:10.760Z,46.6
2023-01-04T11:23:13.442Z,46.6
2023-01-04T11:24:22.414Z,46.4
2023-01-04T11:25:35.074Z,46.6
2023-01-04T11:26:04.059Z,46.7
2023-01-04T11:27:10.770Z,46.5
2023-01-04T11:28:04.456Z,46.3
2023-01-04T11:29:04.530Z,46.2
2023-01-04T11:30:04.496Z,46.2
2023-01-04T11:31:04.515Z,46.1
2023-01-04T11:32:04.526Z,46.2
2023-01-04T11:33:04.552Z,46.2
2023-01-04T11:34:04.489Z,46.1
2023-01-04T11:35:04.483Z,46.1
2023-01-04T11:36:04.468Z,46.1
2023-01-04T11:37:04.497Z,46.0
2023-01-04T11:38:04.466Z,46.0
2023-01-04T11:39:04.500Z,46.0
2023-01-04T11:40:04.786Z,45.9
2023-01-04T11:41:04.503Z,45.9
2023-01-04T11:42:04.547Z,45.9
2023-01-04T11:43:04.503Z,45.9
2023-01-04T11:44:04.484Z,45.9
2023-01-04T11:45:04.561Z,45.9
2023-01-04T11:46:04.554Z,46.0
2023-01-04T11:47:04.512Z,45.9
2023-01-04T11:48:07.982Z,45.9
2023-01-04T11:49:04.519Z,45.9
2023-01-04T11:50:04.537Z,46.0
2023-01-04T11:51:04.538Z,46.0
2023-01-04T11:52:04.465Z,46.0
2023-01-04T11:53:04.494Z,46.0
2023-01-04T11:54:04.489Z,46.0
2023-01-04T11:55:04.515Z,46.0
2023-01-04T11:56:04.485Z,46.0
2023-01-04T11:57:11.368Z,46.0
2023-01-04T11:58:04.489Z,46.1
2023-01-04T11:59:04.513Z,46.1
2023-01-04T12:00:04.469Z,46.1
2023-01-04T12:01:04.526Z,46.0
2023-01-04T12:02:04.624Z,46.0
2023-01-04T12:03:04.674Z,45.9
2023-01-04T12:04:04.515Z,45.9
2023-01-04T12:05:04.521Z,45.9
2023-01-04T12:06:04.473Z,46.1
2023-01-04T12:07:04.508Z,46.2
2023-01-04T12:08:04.472Z,46.3
2023-01-04T12:09:04.513Z,46.4
2023-01-04T12:10:04.585Z,46.5
2023-01-04T12:11:04.514Z,46.5
2023-01-04T12:12:04.492Z,46.5
2023-01-04T12:13:04.520Z,46.6
2023-01-04T12:14:04.466Z,46.6
2023-01-04T12:15:04.590Z,46.7
2023-01-04T12:16:04.493Z,46.6
2023-01-04T12:17:04.614Z,46.6
2023-01-04T12:18:04.583Z,46.7
2023-01-04T12:19:04.491Z,46.7
2023-01-04T12:20:04.475Z,46.7
2023-01-04T12:21:04.580Z,46.6
2023-01-04T12:22:04.503Z,46.6
2023-01-04T12:23:04.540Z,46.6
2023-01-04T12:24:04.482Z,46.6
2023-01-04T12:25:04.516Z,46.5
2023-01-04T12:26:04.508Z,46.5
2023-01-04T12:27:04.543Z,46.5
2023-01-04T12:29:08.351Z,46.4
2023-01-04T12:29:12.347Z,48.2
2023-01-04T12:30:04.533Z,46.6
2023-01-04T12:31:12.742Z,46.8
2023-01-04T12:32:03.985Z,46.7
2023-01-04T12:33:04.014Z,46.7
2023-01-04T12:34:04.086Z,46.7
2023-01-04T12:35:03.994Z,46.7
2023-01-04T12:36:04.032Z,46.6
2023-01-04T12:37:05.800Z,46.6
2023-01-04T12:38:04.209Z,46.6
2023-01-04T12:39:04.040Z,46.6
2023-01-04T12:40:04.031Z,46.6
2023-01-04T12:41:04.072Z,46.5
2023-01-04T12:42:04.026Z,46.5
2023-01-04T12:43:04.099Z,46.5
2023-01-04T12:44:04.050Z,46.4
2023-01-04T12:45:04.032Z,46.4
2023-01-04T12:46:04.144Z,46.4
2023-01-04T12:47:04.022Z,46.4
2023-01-04T12:48:04.054Z,46.4
2023-01-04T12:49:04.023Z,46.4
2023-01-04T12:50:04.257Z,46.4
2023-01-04T12:51:14.661Z,46.3
2023-01-04T12:52:29.360Z,46.5
2023-01-04T12:53:29.412Z,46.7
2023-01-04T12:54:04.272Z,46.7
2023-01-04T12:55:04.021Z,46.6
2023-01-04T12:56:04.079Z,46.6
2023-01-04T12:57:04.043Z,46.5
2023-01-04T12:58:04.995Z,46.5
2023-01-04T12:59:25.850Z,46.5
2023-01-04T13:00:04.098Z,46.4
2023-01-04T13:01:04.060Z,46.2
2023-01-04T13:02:04.087Z,46.2
2023-01-04T13:03:04.095Z,46.1
2023-01-04T13:04:06.073Z,46.1
2023-01-04T13:05:53.242Z,46.1
2023-01-04T13:06:03.986Z,47.2
2023-01-04T13:07:03.969Z,46.2
2023-01-04T13:08:03.982Z,46.2
2023-01-04T13:09:03.963Z,46.1
2023-01-04T13:10:04.038Z,46.2
2023-01-04T13:11:03.969Z,46.1
2023-01-04T13:12:03.987Z,46.1
2023-01-04T13:13:04.011Z,46.1
2023-01-04T13:14:04.004Z,46.1
2023-01-04T13:15:03.951Z,46.0
2023-01-04T13:16:04.002Z,46.0
2023-01-04T13:17:04.069Z,45.9
2023-01-04T13:18:04.018Z,45.9
2023-01-04T13:19:03.975Z,45.9
2023-01-04T13:20:04.017Z,45.9
2023-01-04T13:21:03.962Z,45.9
2023-01-04T13:22:03.992Z,45.9
2023-01-04T13:23:03.985Z,45.8
2023-01-04T13:24:04.000Z,45.6
2023-01-04T13:25:04.027Z,45.8